Terminal Aerodrome Forecast
Issued by NWS

Home | Current Version | Previous Version | Text Only | Print | Product List | Glossary On
Versions: 1 2 3 4 5 6 7 8 9 10 11 12 13 14 15 16 17
133
FTUS43 KICT 171632 AAB
TAFCNU
TAF AMD
KCNU 171632Z 1717/1812 22007KT P6SM BKN007 OVC015
     FM172000 19009KT P6SM OVC018=

USA.gov is the U.S. government's official web portal to all federal, state and local government web resources and services.